Amlin, Ohio
Current Conditions -  °F | °C
As of 2:53 PM on Saturday 25 Oct 2014 (Local Time) from KOSU Reporting Station
Clear Clear  
Wind Chill: 70°   Ceiling: Unl
Heat Index: 70°   Visibility: 9mi
Dew Point: 54°   Wind: 13mph
Humidity: 57%   Direction: 250°WSW
Pressure: 29.86"   Gusts: 21mph
Location:  40.08°N, 83.18°W
Report Text: KOSU 251853Z 25011G18KT 9SM CLR 21/12 A2986 RMK AO2 SLP109 T02110122
Loading
Personal Weather Stations






























Interactive Weather Map
Tropical Storm Tracking
New forecast layout! Learn more

10-Day Weather Forecast

Advertisements
Track Severe Weather on mobile